FFT2225 KRDU-KDEN
Flight info
| Callsign | FFT2225 |
|---|---|
| Flight time | N/A |
| Altitude | 28000 |
| Route | SHPRD4 SHPRD FLM SPI/N0467F300 KP63E HSI BRWRY LAWGR4 |
| Aircraft | A21N/M-SDE3FGHIRWY/LB1 |
Departure
| Time | 2026-05-05 23:38 |
|---|---|
| Airport | Raleigh-Durham International Airport (KRDU) |
Arrival
| Time | N/A |
|---|---|
| Airport | Denver International Airport (KDEN) |
| Time | Latitude | Longitude | Altitude | Speed | Heading |
|---|---|---|---|---|---|
| 2026-05-05 23:19 | 35.87472 | -78.78863 | 419 ft | 0 kts | 288° |
| 2026-05-05 23:32 | 35.87470 | -78.78854 | 419 ft | 2 kts | 289° |
| 2026-05-05 23:32 | 35.87465 | -78.78836 | 420 ft | 2 kts | 289° |
| 2026-05-05 23:32 | 35.87458 | -78.78816 | 420 ft | 2 kts | 303° |
| 2026-05-05 23:32 | 35.87447 | -78.78800 | 421 ft | 2 kts | 320° |
| 2026-05-05 23:33 | 35.87432 | -78.78790 | 422 ft | 2 kts | 339° |
| 2026-05-05 23:33 | 35.87415 | -78.78785 | 422 ft | 2 kts | 358° |
| 2026-05-05 23:33 | 35.87400 | -78.78786 | 422 ft | 2 kts | 13° |
| 2026-05-05 23:34 | 35.87392 | -78.78790 | 422 ft | 2 kts | 23° |
| 2026-05-05 23:34 | 35.87378 | -78.78799 | 422 ft | 1 kts | 40° |
| 2026-05-05 23:34 | 35.87373 | -78.78805 | 422 ft | 1 kts | 46° |
| 2026-05-05 23:35 | 35.87371 | -78.78807 | 422 ft | 0 kts | 45° |
| 2026-05-05 23:35 | 35.87373 | -78.78805 | 422 ft | 1 kts | 44° |
| 2026-05-05 23:36 | 35.87448 | -78.78713 | 423 ft | 25 kts | 45° |
| 2026-05-05 23:36 | 35.87617 | -78.78506 | 425 ft | 37 kts | 44° |
| 2026-05-05 23:36 | 35.87783 | -78.78302 | 425 ft | 28 kts | 46° |
| 2026-05-05 23:36 | 35.87915 | -78.78132 | 424 ft | 24 kts | 45° |
| 2026-05-05 23:37 | 35.87947 | -78.77985 | 422 ft | 16 kts | 136° |
| 2026-05-05 23:37 | 35.87853 | -78.78012 | 424 ft | 18 kts | 226° |
| 2026-05-05 23:37 | 35.87584 | -78.78346 | 427 ft | 91 kts | 223° |
| 2026-05-05 23:37 | 35.86975 | -78.79098 | 413 ft | 153 kts | 224° |
| 2026-05-05 23:38 | 35.86160 | -78.80146 | 847 ft | 168 kts | 227° |
| 2026-05-05 23:38 | 35.85402 | -78.81377 | 1619 ft | 167 kts | 228° |
| 2026-05-05 23:38 | 35.84646 | -78.82602 | 2635 ft | 156 kts | 227° |
| 2026-05-05 23:38 | 35.83848 | -78.83766 | 3081 ft | 164 kts | 225° |
| 2026-05-05 23:39 | 35.83020 | -78.84904 | 3364 ft | 177 kts | 225° |
| 2026-05-05 23:39 | 35.82134 | -78.86103 | 3648 ft | 192 kts | 228° |
| 2026-05-05 23:39 | 35.81596 | -78.87824 | 3909 ft | 218 kts | 263° |
| 2026-05-05 23:39 | 35.81712 | -78.90074 | 4206 ft | 241 kts | 271° |
| 2026-05-05 23:40 | 35.81910 | -78.92443 | 4594 ft | 257 kts | 271° |
| 2026-05-05 23:40 | 35.82088 | -78.94981 | 5235 ft | 263 kts | 270° |
| 2026-05-05 23:40 | 35.82231 | -78.97451 | 5956 ft | 265 kts | 269° |
| 2026-05-05 23:40 | 35.82350 | -78.99899 | 6712 ft | 266 kts | 269° |
| 2026-05-05 23:41 | 35.82461 | -79.02400 | 7434 ft | 267 kts | 269° |
| 2026-05-05 23:41 | 35.82566 | -79.04913 | 8145 ft | 269 kts | 269° |
| 2026-05-05 23:41 | 35.82669 | -79.07481 | 8875 ft | 269 kts | 269° |
| 2026-05-05 23:41 | 35.82821 | -79.10072 | 9546 ft | 273 kts | 278° |
| 2026-05-05 23:42 | 35.83754 | -79.12415 | 10165 ft | 282 kts | 302° |
| 2026-05-05 23:42 | 35.85016 | -79.14436 | 10619 ft | 291 kts | 303° |
| 2026-05-05 23:42 | 35.86409 | -79.16653 | 10908 ft | 305 kts | 303° |
| 2026-05-05 23:42 | 35.87920 | -79.19120 | 11213 ft | 320 kts | 303° |
| 2026-05-05 23:43 | 35.89460 | -79.21687 | 11496 ft | 334 kts | 302° |
| 2026-05-05 23:43 | 35.91044 | -79.24361 | 11762 ft | 347 kts | 302° |
| 2026-05-05 23:43 | 35.92675 | -79.27141 | 12018 ft | 360 kts | 303° |
| 2026-05-05 23:43 | 35.94259 | -79.29848 | 12240 ft | 371 kts | 303° |
| 2026-05-05 23:44 | 35.95910 | -79.32680 | 12562 ft | 380 kts | 303° |
| 2026-05-05 23:44 | 35.97594 | -79.35571 | 13037 ft | 383 kts | 303° |
| 2026-05-05 23:44 | 35.99305 | -79.38513 | 13521 ft | 384 kts | 303° |
| 2026-05-05 23:44 | 36.01008 | -79.41447 | 14013 ft | 386 kts | 303° |
| 2026-05-05 23:45 | 36.02724 | -79.44407 | 14472 ft | 389 kts | 303° |
| 2026-05-05 23:45 | 36.04462 | -79.47411 | 14965 ft | 391 kts | 303° |
| 2026-05-05 23:45 | 36.06207 | -79.50429 | 15447 ft | 393 kts | 303° |
| 2026-05-05 23:45 | 36.07908 | -79.53374 | 15868 ft | 396 kts | 303° |
| 2026-05-05 23:46 | 36.09695 | -79.56469 | 16332 ft | 397 kts | 303° |
| 2026-05-05 23:46 | 36.11421 | -79.59465 | 16767 ft | 399 kts | 303° |
| 2026-05-05 23:46 | 36.13061 | -79.62314 | 17150 ft | 401 kts | 303° |
| 2026-05-05 23:46 | 36.14787 | -79.65313 | 17569 ft | 403 kts | 302° |
| 2026-05-05 23:47 | 36.16470 | -79.68242 | 17987 ft | 403 kts | 302° |
| 2026-05-05 23:47 | 36.18124 | -79.71125 | 18378 ft | 405 kts | 303° |
| 2026-05-05 23:47 | 36.19843 | -79.74119 | 18733 ft | 406 kts | 303° |
| 2026-05-05 23:47 | 36.21735 | -79.77417 | 19117 ft | 408 kts | 303° |
| 2026-05-05 23:48 | 36.23635 | -79.80734 | 19494 ft | 409 kts | 303° |
| 2026-05-05 23:48 | 36.25503 | -79.83997 | 19892 ft | 409 kts | 303° |
| 2026-05-05 23:48 | 36.27361 | -79.87247 | 20297 ft | 410 kts | 303° |
| 2026-05-05 23:48 | 36.29197 | -79.90462 | 20648 ft | 411 kts | 303° |
| 2026-05-05 23:49 | 36.31079 | -79.93763 | 20993 ft | 412 kts | 303° |
| 2026-05-05 23:49 | 36.32918 | -79.96986 | 21339 ft | 412 kts | 303° |
| 2026-05-05 23:49 | 36.34787 | -80.00269 | 21677 ft | 413 kts | 303° |
| 2026-05-05 23:49 | 36.36618 | -80.03484 | 22035 ft | 413 kts | 304° |
| 2026-05-05 23:50 | 36.38458 | -80.06722 | 22311 ft | 414 kts | 304° |
| 2026-05-05 23:50 | 36.40310 | -80.09983 | 22593 ft | 416 kts | 304° |
| 2026-05-05 23:50 | 36.42162 | -80.13248 | 22881 ft | 416 kts | 304° |
| 2026-05-05 23:50 | 36.44017 | -80.16518 | 23163 ft | 417 kts | 304° |
| 2026-05-05 23:51 | 36.45865 | -80.19779 | 23424 ft | 418 kts | 304° |
| 2026-05-05 23:51 | 36.47690 | -80.23003 | 23669 ft | 420 kts | 304° |
| 2026-05-05 23:51 | 36.49531 | -80.26262 | 23962 ft | 419 kts | 304° |
| 2026-05-05 23:51 | 36.51382 | -80.29542 | 24361 ft | 417 kts | 304° |
| 2026-05-05 23:52 | 36.53188 | -80.32739 | 24728 ft | 415 kts | 304° |
| 2026-05-05 23:52 | 36.55010 | -80.35971 | 25070 ft | 413 kts | 304° |
| 2026-05-05 23:52 | 36.56803 | -80.39157 | 25416 ft | 412 kts | 304° |
| 2026-05-05 23:52 | 36.58610 | -80.42368 | 25740 ft | 411 kts | 304° |
| 2026-05-05 23:53 | 36.60390 | -80.45534 | 26037 ft | 410 kts | 304° |
| 2026-05-05 23:53 | 36.62188 | -80.48738 | 26340 ft | 409 kts | 304° |
| 2026-05-05 23:53 | 36.63999 | -80.51968 | 26583 ft | 409 kts | 304° |
| 2026-05-05 23:53 | 36.65802 | -80.55186 | 26791 ft | 410 kts | 304° |
| 2026-05-05 23:54 | 36.67583 | -80.58369 | 27003 ft | 411 kts | 304° |
| 2026-05-05 23:54 | 36.69405 | -80.61624 | 27218 ft | 412 kts | 304° |
| 2026-05-05 23:54 | 36.71246 | -80.64917 | 27464 ft | 411 kts | 304° |
| 2026-05-05 23:54 | 36.72918 | -80.67915 | 27673 ft | 412 kts | 303° |
| 2026-05-05 23:55 | 36.74596 | -80.70923 | 27881 ft | 412 kts | 303° |
| 2026-05-05 23:55 | 36.76305 | -80.73986 | 28007 ft | 413 kts | 303° |
| 2026-05-05 23:55 | 36.80019 | -80.80662 | 28013 ft | 412 kts | 303° |
| 2026-05-05 23:56 | 36.83719 | -80.87322 | 28015 ft | 410 kts | 303° |
| 2026-05-05 23:56 | 36.87388 | -80.93941 | 28013 ft | 410 kts | 303° |
| 2026-05-05 23:57 | 36.91103 | -81.00658 | 28008 ft | 409 kts | 303° |
| 2026-05-05 23:57 | 36.94736 | -81.07240 | 28008 ft | 409 kts | 303° |
| 2026-05-05 23:58 | 36.98370 | -81.13837 | 28000 ft | 409 kts | 303° |
| 2026-05-05 23:58 | 37.00201 | -81.17165 | 27995 ft | 410 kts | 303° |
| 2026-05-05 23:58 | 37.02038 | -81.20507 | 27989 ft | 410 kts | 303° |
| 2026-05-05 23:59 | 37.03893 | -81.23882 | 27988 ft | 411 kts | 303° |
| 2026-05-05 23:59 | 37.05741 | -81.27247 | 27995 ft | 410 kts | 303° |
| 2026-05-05 23:59 | 37.07549 | -81.30547 | 27999 ft | 411 kts | 303° |
| 2026-05-05 23:59 | 37.09385 | -81.33902 | 27993 ft | 410 kts | 303° |
| 2026-05-06 00:00 | 37.11136 | -81.37102 | 27998 ft | 409 kts | 303° |
| 2026-05-06 00:00 | 37.12772 | -81.40098 | 27997 ft | 409 kts | 303° |
| 2026-05-06 00:00 | 37.14440 | -81.43153 | 27994 ft | 409 kts | 303° |
| 2026-05-06 00:00 | 37.16288 | -81.46538 | 27993 ft | 410 kts | 303° |
| 2026-05-06 00:01 | 37.18096 | -81.49858 | 27993 ft | 409 kts | 302° |
| 2026-05-06 00:01 | 37.19931 | -81.53228 | 27985 ft | 410 kts | 303° |
| 2026-05-06 00:01 | 37.21739 | -81.56554 | 27978 ft | 410 kts | 302° |
| 2026-05-06 00:01 | 37.23570 | -81.59924 | 27984 ft | 411 kts | 302° |
| 2026-05-06 00:02 | 37.25392 | -81.63284 | 27980 ft | 411 kts | 302° |
| 2026-05-06 00:02 | 37.27089 | -81.66415 | 27983 ft | 411 kts | 302° |
| 2026-05-06 00:02 | 37.28703 | -81.69393 | 27979 ft | 411 kts | 302° |
| 2026-05-06 00:02 | 37.30401 | -81.72530 | 27976 ft | 411 kts | 302° |
| 2026-05-06 00:03 | 37.32069 | -81.75615 | 27978 ft | 411 kts | 302° |
| 2026-05-06 00:03 | 37.33769 | -81.78764 | 27965 ft | 411 kts | 301° |
| 2026-05-06 00:03 | 37.35439 | -81.81860 | 27964 ft | 412 kts | 301° |
| 2026-05-06 00:03 | 37.37108 | -81.84953 | 27963 ft | 411 kts | 301° |
| 2026-05-06 00:04 | 37.38779 | -81.88058 | 27956 ft | 412 kts | 301° |
| 2026-05-06 00:04 | 37.40441 | -81.91145 | 27959 ft | 412 kts | 301° |
| 2026-05-06 00:04 | 37.42107 | -81.94240 | 27943 ft | 412 kts | 302° |
| 2026-05-06 00:04 | 37.43814 | -81.97415 | 27943 ft | 412 kts | 301° |
| 2026-05-06 00:05 | 37.47227 | -82.03776 | 27940 ft | 413 kts | 301° |
| 2026-05-06 00:05 | 37.48978 | -82.07045 | 27934 ft | 412 kts | 301° |
| 2026-05-06 00:05 | 37.50737 | -82.10334 | 27931 ft | 412 kts | 301° |
| 2026-05-06 00:06 | 37.52464 | -82.13563 | 27930 ft | 412 kts | 301° |
| 2026-05-06 00:06 | 37.54216 | -82.16846 | 27930 ft | 412 kts | 301° |
| 2026-05-06 00:06 | 37.55955 | -82.20106 | 27926 ft | 411 kts | 301° |
| 2026-05-06 00:06 | 37.57705 | -82.23390 | 27929 ft | 411 kts | 301° |
| 2026-05-06 00:07 | 37.59375 | -82.26530 | 27915 ft | 411 kts | 302° |
| 2026-05-06 00:07 | 37.61069 | -82.29711 | 27922 ft | 411 kts | 301° |
| 2026-05-06 00:07 | 37.62746 | -82.32866 | 27914 ft | 411 kts | 302° |
| 2026-05-06 00:07 | 37.64410 | -82.36002 | 27911 ft | 411 kts | 301° |
| 2026-05-06 00:08 | 37.66102 | -82.39188 | 27905 ft | 411 kts | 302° |
| 2026-05-06 00:08 | 37.67795 | -82.42381 | 27900 ft | 411 kts | 301° |
| 2026-05-06 00:08 | 37.69479 | -82.45561 | 27899 ft | 410 kts | 301° |
| 2026-05-06 00:08 | 37.71154 | -82.48722 | 27905 ft | 410 kts | 301° |
| 2026-05-06 00:09 | 37.72835 | -82.51905 | 27908 ft | 411 kts | 302° |
| 2026-05-06 00:09 | 37.74508 | -82.55076 | 27902 ft | 410 kts | 302° |
| 2026-05-06 00:09 | 37.76239 | -82.58361 | 27897 ft | 410 kts | 302° |
| 2026-05-06 00:09 | 37.78002 | -82.61704 | 27907 ft | 410 kts | 302° |
| 2026-05-06 00:10 | 37.79627 | -82.64793 | 28012 ft | 411 kts | 302° |
| 2026-05-06 00:10 | 37.81224 | -82.67829 | 28318 ft | 409 kts | 301° |
| 2026-05-06 00:10 | 37.82788 | -82.70803 | 28634 ft | 407 kts | 301° |
| 2026-05-06 00:10 | 37.84377 | -82.73833 | 28933 ft | 406 kts | 301° |
| 2026-05-06 00:11 | 37.86019 | -82.76962 | 29209 ft | 405 kts | 301° |
| 2026-05-06 00:11 | 37.87670 | -82.80114 | 29474 ft | 404 kts | 301° |
| 2026-05-06 00:11 | 37.89295 | -82.83221 | 29762 ft | 403 kts | 301° |
| 2026-05-06 00:11 | 37.90944 | -82.86374 | 30004 ft | 402 kts | 301° |
| 2026-05-06 00:12 | 37.92568 | -82.89481 | 30270 ft | 400 kts | 301° |
| 2026-05-06 00:12 | 37.94214 | -82.92636 | 30602 ft | 396 kts | 301° |
| 2026-05-06 00:12 | 37.95861 | -82.95791 | 30953 ft | 392 kts | 301° |
| 2026-05-06 00:12 | 37.97467 | -82.98872 | 31320 ft | 387 kts | 301° |
| 2026-05-06 00:13 | 37.99038 | -83.01885 | 31644 ft | 384 kts | 301° |
| 2026-05-06 00:13 | 38.00602 | -83.04893 | 31955 ft | 380 kts | 301° |
| 2026-05-06 00:13 | 38.02178 | -83.07928 | 32259 ft | 376 kts | 301° |
| 2026-05-06 00:13 | 38.03785 | -83.11024 | 32577 ft | 373 kts | 301° |
| 2026-05-06 00:14 | 38.05335 | -83.14014 | 32873 ft | 369 kts | 301° |
| 2026-05-06 00:14 | 38.06891 | -83.17015 | 33188 ft | 365 kts | 301° |
| 2026-05-06 00:14 | 38.08440 | -83.20007 | 33464 ft | 362 kts | 301° |
| 2026-05-06 00:14 | 38.09960 | -83.22948 | 33769 ft | 359 kts | 300° |
| 2026-05-06 00:15 | 38.11375 | -83.25685 | 33833 ft | 359 kts | 300° |
| 2026-05-06 00:15 | 38.14144 | -83.31059 | 33846 ft | 357 kts | 300° |
| 2026-05-06 00:16 | 38.16975 | -83.36550 | 33846 ft | 358 kts | 300° |
| 2026-05-06 00:16 | 38.20039 | -83.42507 | 33849 ft | 358 kts | 300° |
| 2026-05-06 00:17 | 38.23122 | -83.48519 | 33849 ft | 357 kts | 300° |
| 2026-05-06 00:17 | 38.26179 | -83.54477 | 33854 ft | 357 kts | 300° |
| 2026-05-06 00:18 | 38.29185 | -83.60363 | 33854 ft | 357 kts | 300° |
| 2026-05-06 00:18 | 38.32118 | -83.66107 | 33854 ft | 357 kts | 300° |
| 2026-05-06 00:19 | 38.34840 | -83.71442 | 33852 ft | 357 kts | 299° |
| 2026-05-06 00:19 | 38.37714 | -83.77090 | 33848 ft | 356 kts | 300° |
| 2026-05-06 00:20 | 38.40661 | -83.82890 | 33850 ft | 356 kts | 300° |
| 2026-05-06 00:20 | 38.43591 | -83.88669 | 33839 ft | 356 kts | 299° |
| 2026-05-06 00:21 | 38.46464 | -83.94347 | 33833 ft | 356 kts | 299° |
| 2026-05-06 00:21 | 38.49365 | -84.00090 | 33833 ft | 356 kts | 299° |
| 2026-05-06 00:22 | 38.52255 | -84.05814 | 33827 ft | 355 kts | 299° |
| 2026-05-06 00:22 | 38.55119 | -84.11507 | 33829 ft | 355 kts | 299° |
| 2026-05-06 00:23 | 38.58013 | -84.17258 | 33824 ft | 355 kts | 299° |
| 2026-05-06 00:23 | 38.60714 | -84.22647 | 33821 ft | 354 kts | 299° |
| 2026-05-06 00:24 | 38.63181 | -84.28087 | 33826 ft | 353 kts | 295° |
| 2026-05-06 00:24 | 38.65386 | -84.34083 | 33821 ft | 352 kts | 291° |
| 2026-05-06 00:25 | 38.67182 | -84.40376 | 33818 ft | 351 kts | 288° |
| 2026-05-06 00:25 | 38.68787 | -84.46763 | 33819 ft | 351 kts | 287° |
| 2026-05-06 00:26 | 38.70339 | -84.53014 | 33813 ft | 350 kts | 287° |
| 2026-05-06 00:26 | 38.71864 | -84.59182 | 33814 ft | 350 kts | 287° |
| 2026-05-06 00:27 | 38.73404 | -84.65445 | 33812 ft | 350 kts | 286° |
| 2026-05-06 00:27 | 38.74873 | -84.71429 | 33808 ft | 350 kts | 286° |
| 2026-05-06 00:28 | 38.76398 | -84.77669 | 33804 ft | 350 kts | 286° |
| 2026-05-06 00:28 | 38.77933 | -84.83977 | 33802 ft | 350 kts | 286° |
| 2026-05-06 00:29 | 38.79450 | -84.90216 | 33800 ft | 351 kts | 286° |
| 2026-05-06 00:29 | 38.81011 | -84.96638 | 33797 ft | 351 kts | 286° |
| 2026-05-06 00:30 | 38.82587 | -85.03165 | 33793 ft | 351 kts | 286° |
| 2026-05-06 00:30 | 38.84091 | -85.09403 | 33795 ft | 351 kts | 286° |
| 2026-05-06 00:31 | 38.85561 | -85.15517 | 33792 ft | 351 kts | 286° |
| 2026-05-06 00:31 | 38.87069 | -85.21805 | 33796 ft | 352 kts | 286° |
| 2026-05-06 00:32 | 38.88615 | -85.28266 | 33799 ft | 352 kts | 285° |
| 2026-05-06 00:32 | 38.90155 | -85.34717 | 33802 ft | 351 kts | 285° |
| 2026-05-06 00:33 | 38.91692 | -85.41193 | 33801 ft | 351 kts | 285° |
| 2026-05-06 00:33 | 38.93223 | -85.47643 | 33802 ft | 352 kts | 285° |
| 2026-05-06 00:34 | 38.94735 | -85.54029 | 33802 ft | 352 kts | 285° |
| 2026-05-06 00:34 | 38.96247 | -85.60447 | 33794 ft | 352 kts | 285° |
| 2026-05-06 00:35 | 38.97731 | -85.66751 | 33793 ft | 352 kts | 285° |
| 2026-05-06 00:35 | 38.99158 | -85.72839 | 33788 ft | 352 kts | 285° |
| 2026-05-06 00:36 | 39.00646 | -85.79186 | 33791 ft | 352 kts | 285° |
| 2026-05-06 00:36 | 39.02164 | -85.85686 | 33794 ft | 351 kts | 285° |
| 2026-05-06 00:37 | 39.03705 | -85.92306 | 33794 ft | 351 kts | 285° |
| 2026-05-06 00:37 | 39.05244 | -85.98934 | 33805 ft | 353 kts | 284° |
| 2026-05-06 00:38 | 39.06778 | -86.05561 | 33812 ft | 352 kts | 284° |
| 2026-05-06 00:38 | 39.08307 | -86.12209 | 33815 ft | 351 kts | 284° |
| 2026-05-06 00:39 | 39.09850 | -86.18904 | 33819 ft | 351 kts | 284° |
| 2026-05-06 00:39 | 39.11247 | -86.25002 | 33817 ft | 351 kts | 284° |
| 2026-05-06 00:40 | 39.12653 | -86.31136 | 33818 ft | 352 kts | 284° |
| 2026-05-06 00:40 | 39.14143 | -86.37669 | 33821 ft | 353 kts | 284° |
| 2026-05-06 00:41 | 39.15572 | -86.43964 | 33827 ft | 353 kts | 284° |
| 2026-05-06 00:41 | 39.17069 | -86.50556 | 33833 ft | 352 kts | 284° |
| 2026-05-06 00:42 | 39.18607 | -86.57362 | 33834 ft | 352 kts | 284° |
| 2026-05-06 00:42 | 39.20126 | -86.64088 | 33832 ft | 353 kts | 284° |
| 2026-05-06 00:43 | 39.21534 | -86.70351 | 33830 ft | 353 kts | 283° |
| 2026-05-06 00:43 | 39.23024 | -86.76998 | 33831 ft | 352 kts | 283° |
| 2026-05-06 00:44 | 39.24574 | -86.83923 | 33834 ft | 352 kts | 283° |
| 2026-05-06 00:44 | 39.26110 | -86.90808 | 33834 ft | 352 kts | 283° |
| 2026-05-06 00:45 | 39.27611 | -86.97584 | 33836 ft | 353 kts | 283° |
| 2026-05-06 00:45 | 39.29081 | -87.04217 | 33842 ft | 353 kts | 283° |
| 2026-05-06 00:46 | 39.30556 | -87.10884 | 33845 ft | 353 kts | 284° |
| 2026-05-06 00:46 | 39.32016 | -87.17513 | 33843 ft | 352 kts | 283° |
| 2026-05-06 00:47 | 39.33495 | -87.24229 | 33844 ft | 352 kts | 283° |
| 2026-05-06 00:47 | 39.34983 | -87.31048 | 33852 ft | 351 kts | 283° |
| 2026-05-06 00:48 | 39.36463 | -87.37833 | 33849 ft | 351 kts | 282° |
| 2026-05-06 00:48 | 39.37947 | -87.44659 | 33854 ft | 350 kts | 283° |
| 2026-05-06 00:49 | 39.39426 | -87.51472 | 33852 ft | 350 kts | 283° |
| 2026-05-06 00:49 | 39.40883 | -87.58206 | 33852 ft | 349 kts | 283° |
| 2026-05-06 00:50 | 39.42333 | -87.64937 | 33850 ft | 349 kts | 283° |
| 2026-05-06 00:50 | 39.43647 | -87.71049 | 33846 ft | 349 kts | 282° |
| 2026-05-06 00:51 | 39.45035 | -87.77544 | 33849 ft | 348 kts | 282° |
| 2026-05-06 00:51 | 39.46450 | -87.84161 | 33850 ft | 348 kts | 283° |
| 2026-05-06 00:52 | 39.47860 | -87.90781 | 33850 ft | 348 kts | 282° |
| 2026-05-06 00:52 | 39.49274 | -87.97440 | 33847 ft | 347 kts | 283° |
| 2026-05-06 00:53 | 39.50687 | -88.04120 | 33846 ft | 347 kts | 282° |
| 2026-05-06 00:53 | 39.52084 | -88.10734 | 33851 ft | 347 kts | 282° |
| 2026-05-06 00:54 | 39.53485 | -88.17399 | 33855 ft | 347 kts | 282° |
| 2026-05-06 00:54 | 39.54870 | -88.23992 | 33861 ft | 348 kts | 282° |
| 2026-05-06 00:55 | 39.56251 | -88.30610 | 33862 ft | 347 kts | 282° |
| 2026-05-06 00:55 | 39.57637 | -88.37258 | 33863 ft | 348 kts | 282° |
| 2026-05-06 00:56 | 39.59001 | -88.43825 | 33861 ft | 347 kts | 282° |
| 2026-05-06 00:56 | 39.60367 | -88.50432 | 33861 ft | 346 kts | 282° |
| 2026-05-06 00:57 | 39.61727 | -88.57013 | 33867 ft | 346 kts | 282° |
| 2026-05-06 00:57 | 39.63083 | -88.63608 | 33863 ft | 346 kts | 282° |
| 2026-05-06 00:58 | 39.64358 | -88.69820 | 33873 ft | 346 kts | 281° |
| 2026-05-06 00:58 | 39.65660 | -88.76182 | 33872 ft | 345 kts | 282° |
| 2026-05-06 00:59 | 39.66999 | -88.82759 | 33875 ft | 344 kts | 281° |
| 2026-05-06 00:59 | 39.68333 | -88.89320 | 33877 ft | 345 kts | 282° |
| 2026-05-06 01:00 | 39.69670 | -88.95921 | 33875 ft | 343 kts | 281° |
| 2026-05-06 01:00 | 39.70995 | -89.02486 | 33877 ft | 344 kts | 281° |
| 2026-05-06 01:01 | 39.72317 | -89.09035 | 33880 ft | 344 kts | 281° |
| 2026-05-06 01:01 | 39.73639 | -89.15632 | 33881 ft | 343 kts | 281° |
| 2026-05-06 01:02 | 39.74955 | -89.22202 | 33880 ft | 343 kts | 281° |
| 2026-05-06 01:02 | 39.76275 | -89.28815 | 33885 ft | 343 kts | 281° |
| 2026-05-06 01:03 | 39.77588 | -89.35431 | 33888 ft | 344 kts | 281° |
| 2026-05-06 01:03 | 39.78899 | -89.42045 | 33891 ft | 343 kts | 281° |
| 2026-05-06 01:04 | 39.80225 | -89.48752 | 33894 ft | 343 kts | 281° |
| 2026-05-06 01:04 | 39.81582 | -89.55636 | 33896 ft | 343 kts | 281° |
| 2026-05-06 01:05 | 39.82904 | -89.62375 | 33900 ft | 343 kts | 281° |
| 2026-05-06 01:05 | 39.83538 | -89.65648 | 33701 ft | 344 kts | 280° |
| 2026-05-06 01:05 | 39.84044 | -89.68722 | 33433 ft | 343 kts | 277° |
| 2026-05-06 01:05 | 39.84487 | -89.71950 | 33184 ft | 344 kts | 276° |
| 2026-05-06 01:06 | 39.84924 | -89.75211 | 32924 ft | 346 kts | 277° |
| 2026-05-06 01:06 | 39.85365 | -89.78543 | 32660 ft | 347 kts | 277° |
| 2026-05-06 01:06 | 39.85815 | -89.81943 | 32398 ft | 349 kts | 277° |
| 2026-05-06 01:06 | 39.86259 | -89.85307 | 32137 ft | 351 kts | 277° |
| 2026-05-06 01:07 | 39.86723 | -89.88824 | 31864 ft | 353 kts | 277° |
| 2026-05-06 01:07 | 39.87195 | -89.92423 | 31585 ft | 354 kts | 277° |
| 2026-05-06 01:07 | 39.87664 | -89.96021 | 31301 ft | 356 kts | 277° |
| 2026-05-06 01:07 | 39.88133 | -89.99617 | 31040 ft | 359 kts | 276° |
| 2026-05-06 01:08 | 39.88589 | -90.03140 | 30778 ft | 360 kts | 277° |
| 2026-05-06 01:08 | 39.89051 | -90.06713 | 30504 ft | 362 kts | 277° |
| 2026-05-06 01:08 | 39.89514 | -90.10296 | 30228 ft | 364 kts | 277° |
| 2026-05-06 01:08 | 39.89981 | -90.13931 | 29962 ft | 366 kts | 277° |
| 2026-05-06 01:09 | 39.90443 | -90.17532 | 29918 ft | 367 kts | 277° |
| 2026-05-06 01:09 | 39.91378 | -90.24828 | 29903 ft | 367 kts | 277° |
| 2026-05-06 01:10 | 39.92312 | -90.32162 | 29906 ft | 368 kts | 276° |
| 2026-05-06 01:10 | 39.93230 | -90.39420 | 29899 ft | 367 kts | 277° |
| 2026-05-06 01:11 | 39.94147 | -90.46690 | 29906 ft | 366 kts | 277° |
| 2026-05-06 01:11 | 39.95058 | -90.53970 | 29901 ft | 366 kts | 277° |
| 2026-05-06 01:12 | 39.95972 | -90.61287 | 29913 ft | 366 kts | 277° |
| 2026-05-06 01:12 | 39.96854 | -90.68417 | 29916 ft | 365 kts | 276° |
| 2026-05-06 01:13 | 39.97724 | -90.75446 | 29905 ft | 364 kts | 276° |
| 2026-05-06 01:13 | 39.98601 | -90.82604 | 29892 ft | 364 kts | 276° |
| 2026-05-06 01:14 | 39.99916 | -90.93378 | 29899 ft | 364 kts | 276° |
| 2026-05-06 01:14 | 40.00798 | -91.00645 | 29894 ft | 365 kts | 276° |
| 2026-05-06 01:15 | 40.01673 | -91.07912 | 29903 ft | 365 kts | 275° |
| 2026-05-06 01:15 | 40.02543 | -91.15191 | 29898 ft | 365 kts | 276° |
| 2026-05-06 01:16 | 40.03382 | -91.22207 | 29905 ft | 364 kts | 276° |
| 2026-05-06 01:16 | 40.04206 | -91.29163 | 29923 ft | 364 kts | 276° |
| 2026-05-06 01:17 | 40.05029 | -91.36125 | 29904 ft | 363 kts | 275° |
| 2026-05-06 01:17 | 40.05843 | -91.43070 | 29921 ft | 363 kts | 275° |
| 2026-05-06 01:18 | 40.06656 | -91.50027 | 29908 ft | 363 kts | 275° |
| 2026-05-06 01:18 | 40.07463 | -91.56992 | 29925 ft | 362 kts | 275° |
| 2026-05-06 01:19 | 40.08257 | -91.63907 | 29902 ft | 361 kts | 276° |
| 2026-05-06 01:19 | 40.09020 | -91.70542 | 29919 ft | 360 kts | 275° |
| 2026-05-06 01:20 | 40.09810 | -91.77428 | 29907 ft | 360 kts | 275° |
| 2026-05-06 01:20 | 40.10562 | -91.84058 | 29891 ft | 361 kts | 274° |
| 2026-05-06 01:21 | 40.11310 | -91.90681 | 29897 ft | 360 kts | 275° |
| 2026-05-06 01:21 | 40.12086 | -91.97591 | 29907 ft | 361 kts | 274° |
| 2026-05-06 01:22 | 40.12858 | -92.04518 | 29920 ft | 361 kts | 275° |
| 2026-05-06 01:22 | 40.13652 | -92.11659 | 29900 ft | 361 kts | 274° |
| 2026-05-06 01:23 | 40.14452 | -92.18886 | 29911 ft | 361 kts | 274° |
| 2026-05-06 01:23 | 40.15258 | -92.26199 | 29927 ft | 361 kts | 274° |
| 2026-05-06 01:24 | 40.16050 | -92.33493 | 29905 ft | 361 kts | 274° |
| 2026-05-06 01:24 | 40.16835 | -92.40698 | 29917 ft | 361 kts | 274° |
| 2026-05-06 01:25 | 40.17617 | -92.47976 | 29929 ft | 361 kts | 274° |
| 2026-05-06 01:25 | 40.18404 | -92.55299 | 29932 ft | 361 kts | 274° |
| 2026-05-06 01:26 | 40.19185 | -92.62642 | 29922 ft | 360 kts | 274° |
| 2026-05-06 01:26 | 40.19910 | -92.69486 | 29940 ft | 360 kts | 273° |
| 2026-05-06 01:27 | 40.20626 | -92.76260 | 29918 ft | 362 kts | 273° |
| 2026-05-06 01:27 | 40.21355 | -92.83241 | 29924 ft | 361 kts | 274° |
| 2026-05-06 01:28 | 40.22065 | -92.90041 | 29919 ft | 362 kts | 273° |
| 2026-05-06 01:28 | 40.22804 | -92.97220 | 29932 ft | 362 kts | 274° |
| 2026-05-06 01:29 | 40.23547 | -93.04422 | 29944 ft | 362 kts | 274° |
| 2026-05-06 01:29 | 40.24244 | -93.11230 | 29944 ft | 363 kts | 274° |
| 2026-05-06 01:30 | 40.24939 | -93.18076 | 29949 ft | 363 kts | 273° |
| 2026-05-06 01:30 | 40.25687 | -93.25507 | 29939 ft | 364 kts | 274° |
| 2026-05-06 01:31 | 40.26448 | -93.33086 | 29939 ft | 365 kts | 273° |
| 2026-05-06 01:31 | 40.27199 | -93.40623 | 29934 ft | 364 kts | 274° |
| 2026-05-06 01:32 | 40.27949 | -93.48207 | 29942 ft | 365 kts | 273° |
| 2026-05-06 01:32 | 40.28686 | -93.55709 | 29951 ft | 365 kts | 274° |
| 2026-05-06 01:33 | 40.29419 | -93.63195 | 29947 ft | 365 kts | 274° |
| 2026-05-06 01:33 | 40.30091 | -93.70135 | 29945 ft | 365 kts | 272° |
| 2026-05-06 01:34 | 40.30765 | -93.77173 | 29915 ft | 365 kts | 273° |
| 2026-05-06 01:34 | 40.31480 | -93.84589 | 29948 ft | 366 kts | 272° |
| 2026-05-06 01:35 | 40.32148 | -93.91663 | 29960 ft | 365 kts | 273° |
| 2026-05-06 01:35 | 40.32813 | -93.98701 | 29931 ft | 367 kts | 273° |
| 2026-05-06 01:36 | 40.33484 | -94.05816 | 29945 ft | 366 kts | 273° |
| 2026-05-06 01:36 | 40.34154 | -94.13002 | 29939 ft | 366 kts | 273° |
| 2026-05-06 01:37 | 40.34822 | -94.20214 | 29971 ft | 368 kts | 272° |
| 2026-05-06 01:37 | 40.35502 | -94.27588 | 29948 ft | 368 kts | 272° |
| 2026-05-06 01:38 | 40.36165 | -94.34868 | 29955 ft | 368 kts | 272° |
| 2026-05-06 01:38 | 40.36820 | -94.42111 | 29956 ft | 370 kts | 273° |
| 2026-05-06 01:39 | 40.37477 | -94.49411 | 29961 ft | 370 kts | 273° |
| 2026-05-06 01:39 | 40.38133 | -94.56776 | 29953 ft | 370 kts | 273° |
| 2026-05-06 01:40 | 40.38787 | -94.64161 | 29938 ft | 370 kts | 272° |
| 2026-05-06 01:40 | 40.39394 | -94.71044 | 29956 ft | 370 kts | 272° |
| 2026-05-06 01:41 | 40.40004 | -94.78008 | 29967 ft | 371 kts | 272° |
| 2026-05-06 01:41 | 40.40636 | -94.85275 | 29950 ft | 370 kts | 272° |
| 2026-05-06 01:42 | 40.41264 | -94.92587 | 29983 ft | 370 kts | 272° |
| 2026-05-06 01:42 | 40.41898 | -94.99989 | 29985 ft | 370 kts | 272° |
| 2026-05-06 01:43 | 40.42517 | -95.07313 | 29985 ft | 370 kts | 272° |
| 2026-05-06 01:43 | 40.43132 | -95.14593 | 29968 ft | 371 kts | 272° |
| 2026-05-06 01:44 | 40.43747 | -95.21957 | 29974 ft | 373 kts | 272° |
| 2026-05-06 01:44 | 40.44351 | -95.29238 | 29960 ft | 373 kts | 272° |
| 2026-05-06 01:45 | 40.44940 | -95.36402 | 29970 ft | 373 kts | 272° |
| 2026-05-06 01:45 | 40.45540 | -95.43751 | 29960 ft | 374 kts | 272° |
| 2026-05-06 01:46 | 40.46128 | -95.51000 | 29968 ft | 372 kts | 272° |
| 2026-05-06 01:46 | 40.46753 | -95.58740 | 29962 ft | 375 kts | 272° |
| 2026-05-06 01:47 | 40.47328 | -95.66000 | 29969 ft | 376 kts | 272° |
| 2026-05-06 01:47 | 40.47877 | -95.72952 | 29971 ft | 376 kts | 272° |
| 2026-05-06 01:48 | 40.48436 | -95.80019 | 29967 ft | 376 kts | 272° |
| 2026-05-06 01:48 | 40.48995 | -95.87201 | 29975 ft | 375 kts | 272° |
| 2026-05-06 01:49 | 40.49553 | -95.94379 | 29980 ft | 376 kts | 272° |
| 2026-05-06 01:49 | 40.50096 | -96.01753 | 29956 ft | 376 kts | 271° |
| 2026-05-06 01:50 | 40.50480 | -96.09075 | 29972 ft | 377 kts | 270° |
| 2026-05-06 01:50 | 40.50858 | -96.16512 | 29983 ft | 378 kts | 271° |
| 2026-05-06 01:51 | 40.51203 | -96.23306 | 29958 ft | 379 kts | 270° |
| 2026-05-06 01:51 | 40.51576 | -96.30695 | 29969 ft | 380 kts | 271° |
| 2026-05-06 01:52 | 40.51949 | -96.38064 | 29974 ft | 381 kts | 271° |
| 2026-05-06 01:52 | 40.52516 | -96.41639 | 30204 ft | 382 kts | 307° |
| 2026-05-06 01:52 | 40.54584 | -96.43844 | 31350 ft | 302 kts | 282° |
| 2026-05-06 01:53 | 40.55120 | -96.45950 | 33445 ft | 219 kts | 274° |
| 2026-05-06 01:53 | 40.55614 | -96.47566 | 35046 ft | 166 kts | 283° |
| 2026-05-06 01:53 | 40.56350 | -96.48997 | 34851 ft | 188 kts | 288° |
| 2026-05-06 01:53 | 40.56927 | -96.50588 | 33449 ft | 245 kts | 268° |
| 2026-05-06 01:54 | 40.58480 | -96.50964 | 25331 ft | 525 kts | 27° |
| 2026-05-06 01:54 | 40.60952 | -96.47044 | 19199 ft | 603 kts | 58° |
| 2026-05-06 01:54 | 40.62254 | -96.42047 | 19762 ft | 543 kts | 98° |
| 2026-05-06 01:54 | 40.62968 | -96.39414 | 8408 ft | 604 kts | 5° |
| 2026-05-06 01:55 | 40.66378 | -96.40486 | 2900 ft | 544 kts | 319° |
| 2026-05-06 01:55 | 40.65276 | -96.42975 | 7018 ft | 434 kts | 155° |
| 2026-05-06 01:55 | 40.64208 | -96.39796 | 8713 ft | 328 kts | 94° |
| 2026-05-06 01:55 | 40.63971 | -96.38455 | 12400 ft | 92 kts | 83° |